Dong Fang Chun — BRZL — position and weather

sailwx.info

Track history (hours):
 
Tides and Currents Weather Stations Pressure Air Temp Water Temp Dewpoint Dewpoint Depression Visibility Wind Speed Wind Dir Waves Ship Positions

Dong Fang Chun

Last reported at 2014-Sep-19 11:27 UTC. Time now 2014-Sep-19 15:53 UTC.
Position N 22°29' E 113°55'.

Length 23 m; draft 1.4 m.

Type: High speed craft. MMSI: 412461320.

Date/timePositionNaut miles runAvg speedWind from/ knotsBaromVisibWave heightAir tempDewpointWater temp
2014-Sep-19 11:27N 22°29' E 113°55'0 0.0
2014-Sep-19 10:19N 22°29' E 113°55'7 5.9
2014-Sep-19 09:05N 22°21' E 113°55'713.9
2014-Sep-19 08:33N 22°29' E 113°55'0 0.0
2014-Sep-19 06:33N 22°29' E 113°55'0 0.1
2014-Sep-19 05:33N 22°29' E 113°55'0 0.0
2014-Sep-19 04:33N 22°29' E 113°55'0 0.0
2014-Sep-19 03:33N 22°29' E 113°55'4 4.0
2014-Sep-19 02:33N 22°25' E 113°53'1914.4
2014-Sep-19 01:13N 22°15' E 113°35'1319.5
2014-Sep-19 00:33N 22°21' E 113°47'10 1.0
2014-Sep-18 14:04N 22°29' E 113°55'3 1.7
2014-Sep-18 12:33N 22°26' E 113°54'3 1.3
2014-Sep-18 10:33N 22°29' E 113°55'0 0.0
2014-Sep-18 08:33N 22°29' E 113°55'0 0.0
2014-Sep-18 06:33N 22°29' E 113°55'1 0.7
2014-Sep-18 04:33N 22°27' E 113°54'5 4.8
2014-Sep-18 03:33N 22°23' E 113°55'0 0.2
2014-Sep-18 02:31N 22°22' E 113°55'6 6.7
2014-Sep-18 01:33N 22°29' E 113°55'6 0.5
2014-Sep-17 13:33N 22°23' E 113°54'1 0.5
2014-Sep-17 12:33N 22°24' E 113°54'5 2.6
2014-Sep-17 10:33N 22°29' E 113°55'0 0.0
2014-Sep-17 08:33N 22°29' E 113°55'4 3.9
2014-Sep-17 07:33N 22°25' E 113°53'1919.4
2014-Sep-17 06:33N 22°14' E 113°35'1312.6
2014-Sep-17 05:33N 22°21' E 113°47'7 7.1
2014-Sep-17 04:33N 22°25' E 113°53'2018.6
2014-Sep-17 03:30N 22°14' E 113°35'1414.6
2014-Sep-17 02:33N 22°22' E 113°48'9 9.4
2014-Sep-17 01:33N 22°29' E 113°55'0 0.0
2014-Sep-16 14:04N 22°29' E 113°55'4 2.6
2014-Sep-16 12:33N 22°25' E 113°54'3 1.7
2014-Sep-16 10:33N 22°28' E 113°55'1 0.3
2014-Sep-16 08:33N 22°29' E 113°55'0 0.1
2014-Sep-16 07:33N 22°29' E 113°55'0 0.0
2014-Sep-15 12:29N 22°29' E 113°55'0 0.0
2014-Sep-15 10:33N 22°29' E 113°55'4 4.0
2014-Sep-15 09:31N 22°25' E 113°52'1917.4
2014-Sep-15 08:25N 22°15' E 113°35'3 3.3
2014-Sep-15 07:33N 22°16' E 113°38'2020.1
2014-Sep-15 06:34N 22°29' E 113°55'1313.2
2014-Sep-15 05:32N 22°19' E 113°44'8 8.0
2014-Sep-15 04:32N 22°15' E 113°37'2121.6
2014-Sep-15 03:33N 22°28' E 113°55'1413.9
2014-Sep-15 02:32N 22°18' E 113°43'4 4.5
2014-Sep-15 01:33N 22°16' E 113°39'1919.1
2014-Sep-15 00:34N 22°29' E 113°55'2 0.1
2014-Sep-14 12:33N 22°27' E 113°54'2 0.8
2014-Sep-14 10:33N 22°29' E 113°55'0 0.0
2014-Sep-14 08:33N 22°29' E 113°55'0 0.0
2014-Sep-14 07:33N 22°29' E 113°55'0 0.0
2014-Sep-14 06:33N 22°29' E 113°55'0 0.0
2014-Sep-14 05:33N 22°29' E 113°55'2221.7
2014-Sep-14 04:33N 22°15' E 113°36'1914.5
2014-Sep-14 03:13N 22°26' E 113°53'1 1.2
2014-Sep-14 02:33N 22°26' E 113°52'1918.9
2014-Sep-14 01:31N 22°14' E 113°35'23 2.0
2014-Sep-13 14:07N 22°29' E 113°55'5 2.8
2014-Sep-13 12:31N 22°24' E 113°54'5 2.3
2014-Sep-13 10:33N 22°29' E 113°55'0 0.0
2014-Sep-13 08:33N 22°29' E 113°55'1514.2
2014-Sep-13 07:29N 22°18' E 113°42'5 5.5
2014-Sep-13 06:33N 22°16' E 113°38'2020.2
2014-Sep-13 05:33N 22°29' E 113°55'2019.9
2014-Sep-13 04:33N 22°16' E 113°38'10 9.9
2014-Sep-13 03:33N 22°22' E 113°47'8 8.5
2014-Sep-13 02:34N 22°27' E 113°54'2119.0
2014-Sep-13 01:26N 22°14' E 113°35'1214.2
2014-Sep-13 00:34N 22°21' E 113°47'1110.6
2014-Sep-12 23:33N 22°29' E 113°55'5 0.5
2014-Sep-12 13:33N 22°23' E 113°54'2 2.4
2014-Sep-12 12:33N 22°26' E 113°54'3 1.5
2014-Sep-12 10:33N 22°29' E 113°55'0 0.0
2014-Sep-12 08:33N 22°29' E 113°55'0 0.1
2014-Sep-12 07:33N 22°29' E 113°55'0 0.0
2014-Sep-12 06:33N 22°29' E 113°55'4 2.1
2014-Sep-12 04:33N 22°25' E 113°54'3 3.2
2014-Sep-12 03:34N 22°28' E 113°55'4 4.1
2014-Sep-12 02:32N 22°23' E 113°54'5 5.5
2014-Sep-12 01:33N 22°29' E 113°55'0 0.0
2014-Sep-12 00:33N 22°29' E 113°55'4 0.2
2014-Sep-11 09:34N 22°25' E 113°53'2019.7
2014-Sep-11 08:33N 22°14' E 113°35'6 6.3
2014-Sep-11 07:34N 22°17' E 113°41'1716.7
2014-Sep-11 06:33N 22°29' E 113°55'1513.9
2014-Sep-11 05:29N 22°19' E 113°43'6 6.3
2014-Sep-11 04:32N 22°16' E 113°37'2121.3
2014-Sep-11 03:33N 22°29' E 113°55'1212.5
2014-Sep-11 02:33N 22°20' E 113°45'7 7.1
2014-Sep-11 01:33N 22°16' E 113°38'2019.6
2014-Sep-11 00:33N 22°29' E 113°55'0 0.1
2014-Sep-10 23:33N 22°29' E 113°55'7 0.7
2014-Sep-10 13:33N 22°22' E 113°55'5 5.3
2014-Sep-10 12:34N 22°27' E 113°55'3 2.1
2014-Sep-10 11:03N 22°24' E 113°54'510.0
2014-Sep-10 10:33N 22°29' E 113°55'7 4.8
2014-Sep-10 09:03N 22°22' E 113°55'714.5
2014-Sep-10 08:33N 22°29' E 113°55'0 0.0
2014-Sep-10 06:33N 22°29' E 113°55'2 1.1
2014-Sep-10 04:33N 22°27' E 113°54'2 2.1
2014-Sep-10 03:34N 22°29' E 113°55'7 6.7
2014-Sep-10 02:31N 22°22' E 113°55'7 7.3
2014-Sep-10 01:33N 22°29' E 113°55'5 0.5
2014-Sep-09 13:34N 22°23' E 113°54'1 0.6
2014-Sep-09 12:34N 22°24' E 113°54'  
Track history (hours):
 
Tides and Currents Weather Stations Pressure Air Temp Water Temp Dewpoint Dewpoint Depression Visibility Wind Speed Wind Dir Waves Ship Positions

Dong Fang Chun

Last reported at 2014-Sep-19 11:27 UTC. Time now 2014-Sep-19 15:53 UTC.
Position N 22°29' E 113°55'.

Length 23 m; draft 1.4 m.

Type: High speed craft. MMSI: 412461320.

Date/timePositionNaut miles runAvg speedWind from/ knotsBaromVisibWave heightAir tempDewpointWater temp
2014-Sep-19 11:27N 22°29' E 113°55'0 0.0
2014-Sep-19 10:19N 22°29' E 113°55'7 5.9
2014-Sep-19 09:05N 22°21' E 113°55'713.9
2014-Sep-19 08:33N 22°29' E 113°55'0 0.0
2014-Sep-19 06:33N 22°29' E 113°55'0 0.1
2014-Sep-19 05:33N 22°29' E 113°55'0 0.0
2014-Sep-19 04:33N 22°29' E 113°55'0 0.0
2014-Sep-19 03:33N 22°29' E 113°55'4 4.0
2014-Sep-19 02:33N 22°25' E 113°53'1914.4
2014-Sep-19 01:13N 22°15' E 113°35'1319.5
2014-Sep-19 00:33N 22°21' E 113°47'10 1.0
2014-Sep-18 14:04N 22°29' E 113°55'3 1.7
2014-Sep-18 12:33N 22°26' E 113°54'3 1.3
2014-Sep-18 10:33N 22°29' E 113°55'0 0.0
2014-Sep-18 08:33N 22°29' E 113°55'0 0.0
2014-Sep-18 06:33N 22°29' E 113°55'1 0.7
2014-Sep-18 04:33N 22°27' E 113°54'5 4.8
2014-Sep-18 03:33N 22°23' E 113°55'0 0.2
2014-Sep-18 02:31N 22°22' E 113°55'6 6.7
2014-Sep-18 01:33N 22°29' E 113°55'6 0.5
2014-Sep-17 13:33N 22°23' E 113°54'1 0.5
2014-Sep-17 12:33N 22°24' E 113°54'5 2.6
2014-Sep-17 10:33N 22°29' E 113°55'0 0.0
2014-Sep-17 08:33N 22°29' E 113°55'4 3.9
2014-Sep-17 07:33N 22°25' E 113°53'1919.4
2014-Sep-17 06:33N 22°14' E 113°35'1312.6
2014-Sep-17 05:33N 22°21' E 113°47'7 7.1
2014-Sep-17 04:33N 22°25' E 113°53'2018.6
2014-Sep-17 03:30N 22°14' E 113°35'1414.6
2014-Sep-17 02:33N 22°22' E 113°48'9 9.4
2014-Sep-17 01:33N 22°29' E 113°55'0 0.0
2014-Sep-16 14:04N 22°29' E 113°55'4 2.6
2014-Sep-16 12:33N 22°25' E 113°54'3 1.7
2014-Sep-16 10:33N 22°28' E 113°55'1 0.3
2014-Sep-16 08:33N 22°29' E 113°55'0 0.1
2014-Sep-16 07:33N 22°29' E 113°55'0 0.0
2014-Sep-15 12:29N 22°29' E 113°55'0 0.0
2014-Sep-15 10:33N 22°29' E 113°55'4 4.0
2014-Sep-15 09:31N 22°25' E 113°52'1917.4
2014-Sep-15 08:25N 22°15' E 113°35'3 3.3
2014-Sep-15 07:33N 22°16' E 113°38'2020.1
2014-Sep-15 06:34N 22°29' E 113°55'1313.2
2014-Sep-15 05:32N 22°19' E 113°44'8 8.0
2014-Sep-15 04:32N 22°15' E 113°37'2121.6
2014-Sep-15 03:33N 22°28' E 113°55'1413.9
2014-Sep-15 02:32N 22°18' E 113°43'4 4.5
2014-Sep-15 01:33N 22°16' E 113°39'1919.1
2014-Sep-15 00:34N 22°29' E 113°55'2 0.1
2014-Sep-14 12:33N 22°27' E 113°54'2 0.8
2014-Sep-14 10:33N 22°29' E 113°55'0 0.0
2014-Sep-14 08:33N 22°29' E 113°55'0 0.0
2014-Sep-14 07:33N 22°29' E 113°55'0 0.0
2014-Sep-14 06:33N 22°29' E 113°55'0 0.0
2014-Sep-14 05:33N 22°29' E 113°55'2221.7
2014-Sep-14 04:33N 22°15' E 113°36'1914.5
2014-Sep-14 03:13N 22°26' E 113°53'1 1.2
2014-Sep-14 02:33N 22°26' E 113°52'1918.9
2014-Sep-14 01:31N 22°14' E 113°35'23 2.0
2014-Sep-13 14:07N 22°29' E 113°55'5 2.8
2014-Sep-13 12:31N 22°24' E 113°54'5 2.3
2014-Sep-13 10:33N 22°29' E 113°55'0 0.0
2014-Sep-13 08:33N 22°29' E 113°55'1514.2
2014-Sep-13 07:29N 22°18' E 113°42'5 5.5
2014-Sep-13 06:33N 22°16' E 113°38'2020.2
2014-Sep-13 05:33N 22°29' E 113°55'2019.9
2014-Sep-13 04:33N 22°16' E 113°38'10 9.9
2014-Sep-13 03:33N 22°22' E 113°47'8 8.5
2014-Sep-13 02:34N 22°27' E 113°54'2119.0
2014-Sep-13 01:26N 22°14' E 113°35'1214.2
2014-Sep-13 00:34N 22°21' E 113°47'1110.6
2014-Sep-12 23:33N 22°29' E 113°55'5 0.5
2014-Sep-12 13:33N 22°23' E 113°54'2 2.4
2014-Sep-12 12:33N 22°26' E 113°54'3 1.5
2014-Sep-12 10:33N 22°29' E 113°55'0 0.0
2014-Sep-12 08:33N 22°29' E 113°55'0 0.1
2014-Sep-12 07:33N 22°29' E 113°55'0 0.0
2014-Sep-12 06:33N 22°29' E 113°55'4 2.1
2014-Sep-12 04:33N 22°25' E 113°54'3 3.2
2014-Sep-12 03:34N 22°28' E 113°55'4 4.1
2014-Sep-12 02:32N 22°23' E 113°54'5 5.5
2014-Sep-12 01:33N 22°29' E 113°55'0 0.0
2014-Sep-12 00:33N 22°29' E 113°55'4 0.2
2014-Sep-11 09:34N 22°25' E 113°53'2019.7
2014-Sep-11 08:33N 22°14' E 113°35'6 6.3
2014-Sep-11 07:34N 22°17' E 113°41'1716.7
2014-Sep-11 06:33N 22°29' E 113°55'1513.9
2014-Sep-11 05:29N 22°19' E 113°43'6 6.3
2014-Sep-11 04:32N 22°16' E 113°37'2121.3
2014-Sep-11 03:33N 22°29' E 113°55'1212.5
2014-Sep-11 02:33N 22°20' E 113°45'7 7.1
2014-Sep-11 01:33N 22°16' E 113°38'2019.6
2014-Sep-11 00:33N 22°29' E 113°55'0 0.1
2014-Sep-10 23:33N 22°29' E 113°55'7 0.7
2014-Sep-10 13:33N 22°22' E 113°55'5 5.3
2014-Sep-10 12:34N 22°27' E 113°55'3 2.1
2014-Sep-10 11:03N 22°24' E 113°54'510.0
2014-Sep-10 10:33N 22°29' E 113°55'7 4.8
2014-Sep-10 09:03N 22°22' E 113°55'714.5
2014-Sep-10 08:33N 22°29' E 113°55'0 0.0
2014-Sep-10 06:33N 22°29' E 113°55'2 1.1
2014-Sep-10 04:33N 22°27' E 113°54'2 2.1
2014-Sep-10 03:34N 22°29' E 113°55'7 6.7
2014-Sep-10 02:31N 22°22' E 113°55'7 7.3
2014-Sep-10 01:33N 22°29' E 113°55'5 0.5
2014-Sep-09 13:34N 22°23' E 113°54'1 0.6
2014-Sep-09 12:34N 22°24' E 113°54'  

Dump ship's entire track history